createdAt,value
2023-01-06T00:02:10.448Z,101639.59
2023-01-06T00:04:43.238Z,101629.69
2023-01-06T00:07:16.527Z,101637.38
2023-01-06T00:09:52.244Z,101627.66
2023-01-06T00:12:26.594Z,101628.28
2023-01-06T00:15:01.051Z,101631.03
2023-01-06T00:17:36.497Z,101636.03
2023-01-06T00:20:10.473Z,101634.41
2023-01-06T00:22:44.321Z,101626.56
2023-01-06T00:25:17.725Z,101621.91
2023-01-06T00:27:50.800Z,101616.84
2023-01-06T00:30:25.416Z,101616.56
2023-01-06T00:32:58.364Z,101612.50
2023-01-06T00:35:31.402Z,101610.63
2023-01-06T00:38:04.652Z,101613.03
2023-01-06T00:40:38.049Z,101609.47
2023-01-06T00:43:11.830Z,101587.50
2023-01-06T00:45:45.793Z,101598.47
2023-01-06T00:48:21.279Z,101591.41
2023-01-06T00:51:03.633Z,101593.00
2023-01-06T00:53:40.210Z,101587.59
2023-01-06T00:56:13.062Z,101586.59
2023-01-06T00:58:46.128Z,101580.91
2023-01-06T01:01:20.395Z,101572.81
2023-01-06T01:03:53.296Z,101558.19
2023-01-06T01:06:26.213Z,101556.19
2023-01-06T01:09:00.421Z,101557.88
2023-01-06T01:11:50.894Z,101564.84
2023-01-06T01:14:23.995Z,101562.81
2023-01-06T01:16:59.048Z,101556.69
2023-01-06T01:19:32.987Z,101560.34
2023-01-06T01:22:06.788Z,101556.28
2023-01-06T01:24:39.850Z,101551.75
2023-01-06T01:27:13.081Z,101559.25
2023-01-06T01:29:46.072Z,101532.31
2023-01-06T01:32:20.588Z,101545.78
2023-01-06T01:34:54.603Z,101535.75
2023-01-06T01:37:27.572Z,101544.03
2023-01-06T01:40:01.434Z,101525.56
2023-01-06T01:42:34.395Z,101521.53
2023-01-06T01:45:20.084Z,101510.56
2023-01-06T01:48:01.147Z,101506.78
2023-01-06T01:50:43.175Z,101485.84
2023-01-06T01:53:20.606Z,101495.81
2023-01-06T01:55:56.662Z,101485.53
2023-01-06T01:58:35.486Z,101487.97
2023-01-06T02:01:10.826Z,101498.25
2023-01-06T02:03:45.206Z,101494.13
2023-01-06T02:06:22.219Z,101501.22
2023-01-06T02:09:04.032Z,101488.56
2023-01-06T02:11:39.671Z,101492.91
2023-01-06T02:14:14.664Z,101484.53
2023-01-06T02:17:02.341Z,101481.63
2023-01-06T02:20:06.973Z,101478.03
2023-01-06T02:23:04.035Z,101478.09
2023-01-06T02:26:00.206Z,101469.13
2023-01-06T02:28:59.903Z,101472.81
2023-01-06T02:31:59.256Z,101467.91
2023-01-06T02:34:44.643Z,101450.78
2023-01-06T02:37:37.437Z,101446.00
2023-01-06T02:40:22.803Z,101437.97
2023-01-06T02:43:08.137Z,101432.06
2023-01-06T02:45:50.866Z,101416.66
2023-01-06T02:48:34.287Z,101408.06
2023-01-06T02:51:15.038Z,101424.84
2023-01-06T02:54:00.032Z,101427.56
2023-01-06T02:56:38.993Z,101423.22
2023-01-06T02:59:21.566Z,101424.97
2023-01-06T03:01:56.334Z,101423.09
2023-01-06T03:04:34.843Z,101421.47
2023-01-06T03:07:10.040Z,101420.50
2023-01-06T03:09:46.079Z,101419.34
2023-01-06T03:12:27.944Z,101414.13
2023-01-06T03:15:01.643Z,101422.09
2023-01-06T03:17:35.573Z,101406.88
2023-01-06T03:20:12.577Z,101408.06
2023-01-06T03:22:45.561Z,101410.38
2023-01-06T03:25:18.794Z,101401.19
2023-01-06T03:27:54.511Z,101398.59
2023-01-06T03:30:36.428Z,101396.66
2023-01-06T03:33:19.621Z,101405.03
2023-01-06T03:36:05.020Z,101388.03
2023-01-06T03:38:48.539Z,101404.66
2023-01-06T03:41:52.842Z,101400.63
2023-01-06T03:44:34.940Z,101399.09
2023-01-06T03:47:16.752Z,101388.84
2023-01-06T03:49:57.187Z,101384.75
2023-01-06T03:52:35.941Z,101373.09
2023-01-06T03:55:14.574Z,101377.44
2023-01-06T03:57:53.132Z,101373.09
2023-01-06T04:00:29.758Z,101381.09
2023-01-06T04:03:10.752Z,101378.00
2023-01-06T04:05:44.510Z,101380.59
2023-01-06T04:08:19.031Z,101371.75
2023-01-06T04:10:52.137Z,101375.47
2023-01-06T04:13:24.138Z,101365.53
2023-01-06T04:15:59.395Z,101358.63
2023-01-06T04:18:32.278Z,101357.34
2023-01-06T04:21:06.131Z,101355.53
2023-01-06T04:23:41.274Z,101359.06
2023-01-06T04:26:14.429Z,101349.97
2023-01-06T04:28:53.774Z,101356.69
2023-01-06T04:31:27.150Z,101351.84
2023-01-06T04:34:03.366Z,101343.03
2023-01-06T04:36:36.867Z,101354.34
2023-01-06T04:39:11.308Z,101341.88
2023-01-06T04:41:44.239Z,101336.25
2023-01-06T04:44:17.038Z,101332.63
2023-01-06T04:46:50.364Z,101334.47
2023-01-06T04:49:23.428Z,101323.59
2023-01-06T04:51:56.478Z,101321.22
2023-01-06T04:54:30.892Z,101328.06
2023-01-06T04:57:04.221Z,101319.81
2023-01-06T04:59:37.222Z,101305.16
2023-01-06T05:02:09.983Z,101317.44
2023-01-06T05:04:47.687Z,101314.63
2023-01-06T05:07:23.472Z,101311.59
2023-01-06T05:09:57.644Z,101303.47
2023-01-06T05:12:31.942Z,101311.88
2023-01-06T05:15:05.961Z,101309.63
2023-01-06T05:17:39.174Z,101309.72
2023-01-06T05:20:13.105Z,101305.72
2023-01-06T05:22:46.250Z,101302.75
2023-01-06T05:25:20.439Z,101309.47
2023-01-06T05:27:53.254Z,101303.56
2023-01-06T05:30:26.046Z,101309.63
2023-01-06T05:32:58.905Z,101304.00
2023-01-06T05:35:31.698Z,101293.47
2023-01-06T05:38:05.725Z,101299.00
2023-01-06T05:40:39.917Z,101289.19
2023-01-06T05:43:12.854Z,101296.78
2023-01-06T05:45:45.706Z,101293.41
2023-01-06T05:48:20.001Z,101301.72
2023-01-06T05:50:52.854Z,101311.78
2023-01-06T05:53:25.602Z,101315.50
2023-01-06T05:56:02.418Z,101312.63
2023-01-06T05:58:35.540Z,101304.25
2023-01-06T06:01:16.817Z,101318.34
2023-01-06T06:03:50.063Z,101317.19
2023-01-06T06:07:18.271Z,101329.97
2023-01-06T06:09:51.540Z,101350.91
2023-01-06T06:12:25.758Z,101361.53
2023-01-06T06:14:58.608Z,101378.13
2023-01-06T06:17:32.509Z,101373.44
2023-01-06T06:20:06.677Z,101393.31
2023-01-06T06:23:03.997Z,101379.94
2023-01-06T06:25:36.823Z,101392.09
2023-01-06T06:28:11.170Z,101404.28
2023-01-06T06:30:44.172Z,101406.34
2023-01-06T06:33:20.523Z,101396.50
2023-01-06T06:35:58.410Z,101399.81
2023-01-06T06:38:31.552Z,101393.53
2023-01-06T06:41:06.488Z,101405.97
2023-01-06T06:43:41.220Z,101411.53
2023-01-06T06:46:14.452Z,101412.09
2023-01-06T06:48:47.975Z,101408.13
2023-01-06T06:51:23.573Z,101425.03
2023-01-06T06:53:56.646Z,101428.44
2023-01-06T06:56:29.658Z,101433.06
2023-01-06T06:59:03.937Z,101427.28
2023-01-06T07:01:36.873Z,101428.72
2023-01-06T07:04:09.884Z,101438.06
2023-01-06T07:06:43.051Z,101439.97
2023-01-06T07:09:16.034Z,101447.16
2023-01-06T07:11:48.984Z,101453.44
2023-01-06T07:14:23.341Z,101459.44
2023-01-06T07:16:56.182Z,101457.22
2023-01-06T07:19:29.092Z,101470.34
2023-01-06T07:22:01.915Z,101472.44
2023-01-06T07:24:34.742Z,101471.72
2023-01-06T07:27:07.806Z,101488.34
2023-01-06T07:29:42.267Z,101490.28
2023-01-06T07:32:15.395Z,101496.38
2023-01-06T07:34:53.187Z,101501.84
2023-01-06T07:37:29.573Z,101500.75
2023-01-06T07:40:02.722Z,101500.06
2023-01-06T07:42:36.635Z,101492.25
2023-01-06T07:45:12.067Z,101502.28
2023-01-06T07:47:44.854Z,101499.81
2023-01-06T07:50:17.800Z,101509.19
2023-01-06T07:52:51.114Z,101499.03
2023-01-06T07:55:24.071Z,101498.25
2023-01-06T07:57:56.913Z,101506.19
2023-01-06T08:00:31.171Z,101510.56
2023-01-06T08:03:06.084Z,101518.59
2023-01-06T08:05:41.410Z,101527.81
2023-01-06T08:08:14.236Z,101531.88
2023-01-06T08:10:46.987Z,101540.97
2023-01-06T08:13:20.641Z,101553.69
2023-01-06T08:15:54.865Z,101562.16
2023-01-06T08:18:29.568Z,101565.97
2023-01-06T08:21:03.018Z,101568.28
2023-01-06T08:23:36.909Z,101568.28
2023-01-06T08:26:13.430Z,101568.28
2023-01-06T08:28:47.102Z,101571.47
2023-01-06T08:31:22.505Z,101576.09
2023-01-06T08:33:55.494Z,101576.53
2023-01-06T08:36:29.029Z,101578.47
2023-01-06T08:39:01.861Z,101577.25
2023-01-06T08:41:34.672Z,101589.94
2023-01-06T08:44:08.085Z,101585.13
2023-01-06T08:46:42.172Z,101590.50
2023-01-06T08:49:15.338Z,101594.31
2023-01-06T08:51:49.692Z,101593.16
2023-01-06T08:54:22.772Z,101593.97
2023-01-06T08:56:55.442Z,101589.63
2023-01-06T08:59:28.224Z,101596.94
2023-01-06T09:02:02.761Z,101599.44
2023-01-06T09:04:35.724Z,101600.50
2023-01-06T09:07:08.344Z,101616.38
2023-01-06T09:09:41.519Z,101617.91
2023-01-06T09:12:14.350Z,101618.72
2023-01-06T09:14:47.147Z,101638.44
2023-01-06T09:17:21.296Z,101629.84
2023-01-06T09:19:54.185Z,101636.69
2023-01-06T09:22:26.829Z,101631.53
2023-01-06T09:24:59.523Z,101631.97
2023-01-06T09:27:32.303Z,101638.44
2023-01-06T09:30:06.129Z,101634.09
2023-01-06T09:32:40.135Z,101640.91
2023-01-06T09:35:12.965Z,101634.81
2023-01-06T09:37:45.933Z,101631.19
2023-01-06T09:40:20.872Z,101632.94
2023-01-06T09:43:03.312Z,101627.66
2023-01-06T09:45:43.602Z,101629.94
2023-01-06T09:48:22.108Z,101634.81
2023-01-06T09:50:59.683Z,101643.84
2023-01-06T09:53:37.919Z,101645.59
2023-01-06T09:56:17.405Z,101651.06
2023-01-06T09:58:55.725Z,101657.47
2023-01-06T10:01:33.243Z,101656.06
2023-01-06T10:04:07.742Z,101659.16
2023-01-06T10:06:45.501Z,101668.28
2023-01-06T10:09:28.364Z,101672.34
2023-01-06T10:12:14.453Z,101671.75
2023-01-06T10:14:59.940Z,101669.63
2023-01-06T10:17:52.852Z,101672.97
2023-01-06T10:20:44.649Z,101670.69
2023-01-06T10:23:30.535Z,101680.34
2023-01-06T10:26:12.229Z,101679.09
2023-01-06T10:28:48.283Z,101680.34
2023-01-06T10:31:24.497Z,101671.78
2023-01-06T10:33:59.724Z,101676.28
2023-01-06T10:36:39.838Z,101670.53
2023-01-06T10:39:17.258Z,101672.19
2023-01-06T10:42:19.475Z,101668.34
2023-01-06T10:44:52.256Z,101669.38
2023-01-06T10:47:29.108Z,101662.38
2023-01-06T10:50:02.090Z,101666.47
2023-01-06T10:52:36.945Z,101665.84
2023-01-06T10:55:30.188Z,101667.53
2023-01-06T10:58:12.311Z,101674.59
2023-01-06T11:00:59.713Z,101662.38
2023-01-06T11:03:34.430Z,101675.81
2023-01-06T11:06:11.380Z,101672.19
2023-01-06T11:08:45.986Z,101670.47
2023-01-06T11:11:29.261Z,101665.13
2023-01-06T11:14:05.933Z,101666.22
2023-01-06T11:16:38.933Z,101664.72
2023-01-06T11:19:34.073Z,101662.31
2023-01-06T11:22:27.691Z,101655.91
2023-01-06T11:25:02.243Z,101654.50
2023-01-06T11:27:35.191Z,101653.63
2023-01-06T11:30:23.117Z,101648.66
2023-01-06T11:32:56.592Z,101642.56
2023-01-06T11:35:34.550Z,101646.84
2023-01-06T11:38:07.436Z,101635.72
2023-01-06T11:40:43.976Z,101638.75
2023-01-06T11:43:20.598Z,101636.00
2023-01-06T11:45:57.109Z,101626.22
2023-01-06T11:48:35.426Z,101629.34
2023-01-06T11:51:09.887Z,101630.66
2023-01-06T11:53:57.351Z,101631.44
2023-01-06T11:56:31.402Z,101632.59
2023-01-06T11:59:11.537Z,101633.47
2023-01-06T12:01:49.184Z,101632.66
2023-01-06T12:04:29.233Z,101633.41
2023-01-06T12:07:08.886Z,101635.34
2023-01-06T12:09:45.440Z,101636.94
2023-01-06T12:12:22.262Z,101642.94
2023-01-06T12:14:56.728Z,101639.81
2023-01-06T12:17:43.090Z,101651.03
2023-01-06T12:20:20.718Z,101645.84
2023-01-06T12:22:57.876Z,101635.28
2023-01-06T12:25:36.149Z,101640.78
2023-01-06T12:28:18.526Z,101641.56
2023-01-06T12:31:01.273Z,101632.88
2023-01-06T12:33:39.079Z,101621.91
2023-01-06T12:36:18.463Z,101628.03
2023-01-06T12:38:55.723Z,101620.81
2023-01-06T12:41:37.359Z,101627.75
2023-01-06T12:44:31.170Z,101623.56
2023-01-06T12:47:13.468Z,101627.78
2023-01-06T12:49:52.798Z,101620.66
2023-01-06T12:52:32.322Z,101618.72
2023-01-06T12:55:06.043Z,101623.59
2023-01-06T12:57:54.983Z,101623.50
2023-01-06T13:00:45.606Z,101629.25
2023-01-06T13:03:53.842Z,101623.34
2023-01-06T13:06:37.952Z,101622.63
2023-01-06T13:09:25.963Z,101620.38
2023-01-06T13:12:14.406Z,101624.22
2023-01-06T13:14:58.843Z,101634.69
2023-01-06T13:17:37.416Z,101631.22
2023-01-06T13:20:17.897Z,101628.91
2023-01-06T13:23:04.944Z,101641.25
2023-01-06T13:26:00.135Z,101642.56
2023-01-06T13:28:43.631Z,101640.72
2023-01-06T13:31:30.781Z,101628.44
2023-01-06T13:34:30.774Z,101621.22
2023-01-06T13:37:32.669Z,101631.06
2023-01-06T13:40:12.229Z,101633.47
2023-01-06T13:42:53.369Z,101632.00
2023-01-06T13:45:31.977Z,101632.00
2023-01-06T13:48:09.001Z,101627.41
2023-01-06T13:50:43.952Z,101623.75
2023-01-06T13:53:22.097Z,101599.50
2023-01-06T13:56:25.758Z,101606.47
2023-01-06T13:59:19.011Z,101610.47
2023-01-06T14:01:53.146Z,101608.38
2023-01-06T14:04:48.442Z,101610.97
2023-01-06T14:07:34.076Z,101612.19
2023-01-06T14:10:29.061Z,101618.94
2023-01-06T14:13:03.012Z,101617.31
2023-01-06T14:15:55.388Z,101610.06
2023-01-06T14:18:35.011Z,101619.09
2023-01-06T14:21:17.635Z,101618.31
2023-01-06T14:23:55.343Z,101612.19
2023-01-06T14:26:49.220Z,101609.88
2023-01-06T14:29:59.253Z,101610.22
2023-01-06T14:33:01.608Z,101611.28
2023-01-06T14:35:42.026Z,101605.63
2023-01-06T14:38:25.491Z,101607.25
2023-01-06T14:41:04.933Z,101596.34
2023-01-06T14:43:54.188Z,101597.06
2023-01-06T14:46:30.295Z,101600.97
2023-01-06T14:49:05.398Z,101597.78
2023-01-06T14:51:38.216Z,101610.00
2023-01-06T14:54:19.626Z,101606.38
2023-01-06T14:56:56.499Z,101607.09
2023-01-06T14:59:29.404Z,101611.69
2023-01-06T15:02:05.202Z,101603.91
2023-01-06T15:04:38.141Z,101607.78
2023-01-06T15:07:19.441Z,101603.47
2023-01-06T15:09:53.367Z,101593.47
2023-01-06T15:12:30.029Z,101593.47
2023-01-06T15:15:15.759Z,101586.22
2023-01-06T15:17:48.530Z,101593.31
2023-01-06T15:20:22.999Z,101591.66
2023-01-06T15:22:56.015Z,101583.56
2023-01-06T15:25:30.563Z,101581.78
2023-01-06T15:28:04.606Z,101583.22
2023-01-06T15:30:37.428Z,101589.41
2023-01-06T15:33:12.968Z,101587.81
2023-01-06T15:35:46.517Z,101587.13
2023-01-06T15:38:28.006Z,101580.13
2023-01-06T15:41:01.471Z,101572.69
2023-01-06T15:43:44.919Z,101564.53
2023-01-06T15:46:17.786Z,101573.91
2023-01-06T15:48:52.203Z,101571.00
2023-01-06T15:51:25.216Z,101564.81
2023-01-06T15:53:59.694Z,101572.59
2023-01-06T15:56:32.776Z,101571.00
2023-01-06T16:02:18.626Z,101558.38
2023-01-06T16:08:36.516Z,101560.16
2023-01-06T16:11:46.264Z,101558.53
2023-01-06T16:14:28.207Z,101558.53
2023-01-06T16:17:09.485Z,101564.13
2023-01-06T16:19:47.754Z,101554.03
2023-01-06T16:22:30.285Z,101561.22
2023-01-06T16:25:06.648Z,101550.94
2023-01-06T16:27:39.512Z,101552.00
2023-01-06T16:30:25.270Z,101554.03
2023-01-06T16:33:00.988Z,101556.34
2023-01-06T16:35:35.382Z,101547.38
2023-01-06T16:38:08.614Z,101536.88
2023-01-06T16:40:41.547Z,101534.38
2023-01-06T16:43:14.548Z,101545.09
2023-01-06T16:45:51.067Z,101546.25
2023-01-06T16:48:25.316Z,101540.41
2023-01-06T16:50:59.153Z,101545.47
2023-01-06T16:53:33.817Z,101550.13
2023-01-06T16:56:15.724Z,101547.38
2023-01-06T16:58:48.619Z,101540.31
2023-01-06T17:01:22.743Z,101534.81
2023-01-06T17:03:59.003Z,101543.50
2023-01-06T17:06:32.414Z,101542.72
2023-01-06T17:09:17.905Z,101540.47
2023-01-06T17:11:52.881Z,101543.22
2023-01-06T17:14:25.824Z,101548.72
2023-01-06T17:17:00.868Z,101548.72
2023-01-06T17:19:36.783Z,101553.50
2023-01-06T17:22:22.653Z,101550.31
2023-01-06T17:24:59.319Z,101551.03
2023-01-06T17:27:32.158Z,101547.56
2023-01-06T17:30:15.285Z,101547.56
2023-01-06T17:32:48.895Z,101543.69
2023-01-06T17:35:28.123Z,101539.78
2023-01-06T17:38:03.736Z,101533.84
2023-01-06T17:40:38.554Z,101534.28
2023-01-06T17:43:23.215Z,101534.72
2023-01-06T17:45:56.447Z,101534.72
2023-01-06T17:48:29.418Z,101531.72
2023-01-06T17:51:03.361Z,101542.53
2023-01-06T17:53:55.453Z,101533.75
2023-01-06T17:56:28.327Z,101529.84
2023-01-06T17:59:10.654Z,101528.34
2023-01-06T18:01:43.718Z,101529.47
2023-01-06T18:04:16.901Z,101531.88
2023-01-06T18:06:52.886Z,101538.16
2023-01-06T18:09:25.828Z,101532.69
2023-01-06T18:12:03.558Z,101534.34
2023-01-06T18:14:41.925Z,101539.38
2023-01-06T18:17:20.650Z,101536.66
2023-01-06T18:19:53.986Z,101535.91
2023-01-06T18:22:32.923Z,101532.75
2023-01-06T18:25:16.929Z,101543.03
2023-01-06T18:27:51.929Z,101540.72
2023-01-06T18:30:28.059Z,101542.66
2023-01-06T18:33:01.543Z,101548.22
2023-01-06T18:35:34.406Z,101538.50
2023-01-06T18:38:09.322Z,101540.63
2023-01-06T18:40:43.205Z,101535.38
2023-01-06T18:43:23.832Z,101528.78
2023-01-06T18:45:59.881Z,101523.66
2023-01-06T18:48:34.551Z,101515.88
2023-01-06T18:51:20.332Z,101522.06
2023-01-06T18:53:54.519Z,101503.22
2023-01-06T18:56:27.678Z,101494.47
2023-01-06T18:59:00.824Z,101497.53
2023-01-06T19:01:43.605Z,101495.34
2023-01-06T19:04:22.118Z,101487.69
2023-01-06T19:06:57.196Z,101486.91
2023-01-06T19:09:34.743Z,101496.09
2023-01-06T19:12:18.094Z,101489.28
2023-01-06T19:14:53.604Z,101492.41
2023-01-06T19:17:29.842Z,101491.72
2023-01-06T19:20:13.638Z,101498.59
2023-01-06T19:22:48.799Z,101492.66
2023-01-06T19:25:32.243Z,101498.53
2023-01-06T19:28:13.836Z,101488.44
2023-01-06T19:30:51.311Z,101485.59
2023-01-06T19:33:36.685Z,101476.63
2023-01-06T19:36:39.330Z,101480.63
2023-01-06T19:39:25.241Z,101465.00
2023-01-06T19:42:12.879Z,101467.75
2023-01-06T19:44:48.577Z,101456.28
2023-01-06T19:47:24.703Z,101460.09
2023-01-06T19:50:00.096Z,101455.31
2023-01-06T19:52:35.627Z,101468.34
2023-01-06T19:55:27.207Z,101474.34
2023-01-06T19:58:06.122Z,101476.50
2023-01-06T20:00:46.917Z,101472.31
2023-01-06T20:03:29.242Z,101482.22
2023-01-06T20:06:02.384Z,101470.06
2023-01-06T20:08:35.337Z,101473.25
2023-01-06T20:11:08.358Z,101472.50
2023-01-06T20:13:42.577Z,101473.19
2023-01-06T20:16:15.447Z,101472.38
2023-01-06T20:18:48.220Z,101462.75
2023-01-06T20:21:20.966Z,101466.22
2023-01-06T20:23:53.834Z,101458.56
2023-01-06T20:26:27.165Z,101455.38
2023-01-06T20:29:04.017Z,101453.13
2023-01-06T20:31:36.948Z,101457.28
2023-01-06T20:34:09.570Z,101457.63
2023-01-06T20:36:42.387Z,101446.78
2023-01-06T20:39:15.236Z,101459.38
2023-01-06T20:41:48.007Z,101469.75
2023-01-06T20:44:25.100Z,101465.97
2023-01-06T20:46:57.890Z,101460.38
2023-01-06T20:49:31.020Z,101458.41
2023-01-06T20:52:03.977Z,101459.66
2023-01-06T20:54:36.598Z,101455.00
2023-01-06T20:57:09.357Z,101459.81
2023-01-06T20:59:43.468Z,101457.41
2023-01-06T21:02:16.967Z,101451.41
2023-01-06T21:04:51.349Z,101456.59
2023-01-06T21:07:27.140Z,101451.91
2023-01-06T21:10:00.981Z,101449.16
2023-01-06T21:12:33.922Z,101453.25
2023-01-06T21:15:08.909Z,101456.47
2023-01-06T21:17:41.942Z,101448.69
2023-01-06T21:20:14.817Z,101459.66
2023-01-06T21:22:47.646Z,101453.56
2023-01-06T21:25:20.513Z,101457.06
2023-01-06T21:27:53.512Z,101459.06
2023-01-06T21:30:28.500Z,101464.63
2023-01-06T21:33:01.760Z,101455.75
2023-01-06T21:35:34.944Z,101458.19
2023-01-06T21:38:07.691Z,101449.09
2023-01-06T21:40:40.578Z,101453.00
2023-01-06T21:43:12.535Z,101446.41
2023-01-06T21:45:47.930Z,101444.53
2023-01-06T21:48:22.499Z,101448.72
2023-01-06T21:50:55.255Z,101439.81
2023-01-06T21:53:30.736Z,101447.88
2023-01-06T21:56:03.635Z,101444.09
2023-01-06T21:58:36.511Z,101442.16
2023-01-06T22:01:10.670Z,101447.31
2023-01-06T22:03:43.855Z,101438.69
2023-01-06T22:06:18.421Z,101444.38
2023-01-06T22:08:54.505Z,101437.72
2023-01-06T22:11:29.990Z,101438.53
2023-01-06T22:14:03.427Z,101439.28
2023-01-06T22:16:40.642Z,101446.47
2023-01-06T22:19:15.209Z,101439.06
2023-01-06T22:21:50.894Z,101440.06
2023-01-06T22:24:25.146Z,101438.09
2023-01-06T22:26:58.121Z,101434.41
2023-01-06T22:29:31.261Z,101438.81
2023-01-06T22:32:07.327Z,101433.53
2023-01-06T22:34:41.577Z,101448.06
2023-01-06T22:37:14.694Z,101431.56
2023-01-06T22:39:49.433Z,101442.50
2023-01-06T22:42:22.789Z,101437.44
2023-01-06T22:44:56.246Z,101443.19
2023-01-06T22:47:30.958Z,101432.44
2023-01-06T22:50:05.580Z,101439.31
2023-01-06T22:52:38.436Z,101446.91
2023-01-06T22:55:12.126Z,101445.47
2023-01-06T22:57:45.174Z,101441.81
2023-01-06T23:00:19.715Z,101443.44
2023-01-06T23:02:53.912Z,101446.47
2023-01-06T23:05:26.934Z,101441.78
2023-01-06T23:07:59.776Z,101445.03
2023-01-06T23:10:32.805Z,101436.16
2023-01-06T23:13:05.642Z,101433.59
2023-01-06T23:15:38.521Z,101437.56
2023-01-06T23:18:12.923Z,101433.59
2023-01-06T23:20:45.593Z,101438.09
2023-01-06T23:23:18.550Z,101430.69
2023-01-06T23:25:51.324Z,101426.75
2023-01-06T23:28:24.309Z,101435.34
2023-01-06T23:31:01.375Z,101438.22
2023-01-06T23:33:38.646Z,101443.06
2023-01-06T23:36:13.199Z,101434.31
2023-01-06T23:38:46.895Z,101426.69
2023-01-06T23:41:21.849Z,101416.53
2023-01-06T23:43:56.154Z,101416.25
2023-01-06T23:46:30.466Z,101400.72
2023-01-06T23:49:05.547Z,101402.38
2023-01-06T23:51:38.914Z,101398.59
2023-01-06T23:54:13.006Z,101392.97
2023-01-06T23:56:46.064Z,101389.66
2023-01-06T23:59:18.691Z,101396.13
